createdAt,value
2022-08-25T00:00:27.642Z,22.50
2022-08-25T00:01:28.392Z,22.43
2022-08-25T00:02:27.625Z,22.41
2022-08-25T00:03:27.590Z,22.39
2022-08-25T00:04:28.583Z,22.34
2022-08-25T00:05:28.517Z,22.29
2022-08-25T00:06:27.570Z,22.28
2022-08-25T00:07:27.578Z,22.27
2022-08-25T00:08:27.531Z,22.22
2022-08-25T00:09:27.523Z,22.17
2022-08-25T00:10:27.513Z,22.13
2022-08-25T00:11:27.530Z,22.10
2022-08-25T00:12:27.482Z,22.07
2022-08-25T00:13:27.483Z,22.07
2022-08-25T00:14:27.462Z,22.06
2022-08-25T00:15:27.513Z,22.04
2022-08-25T00:16:27.442Z,22.02
2022-08-25T00:17:27.455Z,22.04
2022-08-25T00:18:27.413Z,22.02
2022-08-25T00:19:27.424Z,22.02
2022-08-25T00:20:27.394Z,21.97
2022-08-25T00:21:27.394Z,21.95
2022-08-25T00:22:27.396Z,21.95
2022-08-25T00:23:27.364Z,21.95
2022-08-25T00:24:27.358Z,21.97
2022-08-25T00:25:27.344Z,21.95
2022-08-25T00:26:27.355Z,21.92
2022-08-25T00:27:27.323Z,21.88
2022-08-25T00:28:27.337Z,21.85
2022-08-25T00:29:27.310Z,21.79
2022-08-25T00:30:27.286Z,21.78
2022-08-25T00:31:37.555Z,21.75
2022-08-25T00:32:28.258Z,21.74
2022-08-25T00:33:27.289Z,21.72
2022-08-25T00:34:27.247Z,21.72
2022-08-25T00:35:27.255Z,21.69
2022-08-25T00:36:27.226Z,21.67
2022-08-25T00:37:27.248Z,21.69
2022-08-25T00:38:27.198Z,21.64
2022-08-25T00:39:27.189Z,21.60
2022-08-25T00:40:27.243Z,21.59
2022-08-25T00:41:27.169Z,21.56
2022-08-25T00:42:27.150Z,21.51
2022-08-25T00:43:27.170Z,21.51
2022-08-25T00:44:27.899Z,21.53
2022-08-25T00:45:27.125Z,21.50
2022-08-25T00:46:27.148Z,21.46
2022-08-25T00:47:27.101Z,21.44
2022-08-25T00:48:27.114Z,21.42
2022-08-25T00:49:27.080Z,21.44
2022-08-25T00:50:27.063Z,21.41
2022-08-25T00:51:27.061Z,21.46
2022-08-25T00:52:27.050Z,21.45
2022-08-25T00:53:27.065Z,21.41
2022-08-25T00:54:27.021Z,21.39
2022-08-25T00:55:27.012Z,21.38
2022-08-25T00:56:27.004Z,21.38
2022-08-25T00:57:34.808Z,21.36
2022-08-25T00:58:28.001Z,21.35
2022-08-25T00:59:26.975Z,21.30
2022-08-25T01:00:26.953Z,21.30
2022-08-25T01:01:27.031Z,21.29
2022-08-25T01:02:26.986Z,21.30
2022-08-25T01:03:33.185Z,21.30
2022-08-25T01:04:27.956Z,21.27
2022-08-25T01:05:26.896Z,21.29
2022-08-25T01:06:26.997Z,21.32
2022-08-25T01:07:26.877Z,21.30
2022-08-25T01:08:26.865Z,21.32
2022-08-25T01:09:26.857Z,21.35
2022-08-25T01:10:26.866Z,21.39
2022-08-25T01:11:26.844Z,21.39
2022-08-25T01:12:26.824Z,21.41
2022-08-25T01:13:26.816Z,21.41
2022-08-25T01:14:26.817Z,21.45
2022-08-25T01:15:26.852Z,21.48
2022-08-25T01:16:26.779Z,21.50
2022-08-25T01:17:26.768Z,21.51
2022-08-25T01:18:26.760Z,21.54
2022-08-25T01:19:26.769Z,21.59
2022-08-25T01:20:29.405Z,21.63
2022-08-25T01:21:26.731Z,21.67
2022-08-25T01:22:26.750Z,21.67
2022-08-25T01:23:26.700Z,21.66
2022-08-25T01:24:26.710Z,21.67
2022-08-25T01:25:26.715Z,21.67
2022-08-25T01:26:30.586Z,21.67
2022-08-25T01:27:26.678Z,21.63
2022-08-25T01:28:26.651Z,21.63
2022-08-25T01:29:27.600Z,21.60
2022-08-25T01:30:26.632Z,21.57
2022-08-25T01:31:26.696Z,21.53
2022-08-25T01:32:26.638Z,21.53
2022-08-25T01:33:27.418Z,21.53
2022-08-25T01:34:26.582Z,21.50
2022-08-25T01:35:26.571Z,21.45
2022-08-25T01:36:26.554Z,21.41
2022-08-25T01:37:26.572Z,21.36
2022-08-25T01:38:26.532Z,21.35
2022-08-25T01:39:27.346Z,21.34
2022-08-25T01:40:26.614Z,21.30
2022-08-25T01:41:26.504Z,21.26
2022-08-25T01:42:26.601Z,21.21
2022-08-25T01:43:26.483Z,21.20
2022-08-25T01:44:26.471Z,21.16
2022-08-25T01:45:26.463Z,21.13
2022-08-25T01:46:27.266Z,21.09
2022-08-25T01:47:26.464Z,21.08
2022-08-25T01:48:26.424Z,21.13
2022-08-25T01:49:26.417Z,21.13
2022-08-25T01:50:26.404Z,21.11
2022-08-25T01:51:26.401Z,21.14
2022-08-25T01:52:26.446Z,21.16
2022-08-25T01:53:26.374Z,21.16
2022-08-25T01:54:26.364Z,21.16
2022-08-25T01:55:26.388Z,21.16
2022-08-25T01:56:26.338Z,21.11
2022-08-25T01:57:26.329Z,21.16
2022-08-25T01:58:26.308Z,21.21
2022-08-25T01:59:26.305Z,21.19
2022-08-25T02:00:26.287Z,21.17
2022-08-25T02:01:27.151Z,21.17
2022-08-25T02:02:26.408Z,21.16
2022-08-25T02:03:26.267Z,21.16
2022-08-25T02:04:26.247Z,21.14
2022-08-25T02:05:26.240Z,21.13
2022-08-25T02:06:30.075Z,21.11
2022-08-25T02:07:26.218Z,21.11
2022-08-25T02:08:26.198Z,21.11
2022-08-25T02:09:26.210Z,21.09
2022-08-25T02:10:26.181Z,21.11
2022-08-25T02:11:26.197Z,21.09
2022-08-25T02:12:26.161Z,21.08
2022-08-25T02:13:26.803Z,21.08
2022-08-25T02:14:27.131Z,21.04
2022-08-25T02:15:26.130Z,21.04
2022-08-25T02:16:26.184Z,21.05
2022-08-25T02:17:26.109Z,21.04
2022-08-25T02:18:26.091Z,21.02
2022-08-25T02:19:26.096Z,21.02
2022-08-25T02:20:26.071Z,21.05
2022-08-25T02:21:26.113Z,21.01
2022-08-25T02:22:26.081Z,21.01
2022-08-25T02:23:26.053Z,20.99
2022-08-25T02:24:26.044Z,21.01
2022-08-25T02:25:26.020Z,20.99
2022-08-25T02:26:26.003Z,20.96
2022-08-25T02:27:26.081Z,20.95
2022-08-25T02:28:26.169Z,20.93
2022-08-25T02:29:25.994Z,20.90
2022-08-25T02:30:26.000Z,20.89
2022-08-25T02:31:25.954Z,20.90
2022-08-25T02:32:25.944Z,20.84
2022-08-25T02:33:25.935Z,20.86
2022-08-25T02:34:25.947Z,20.83
2022-08-25T02:35:25.905Z,20.81
2022-08-25T02:36:25.894Z,20.79
2022-08-25T02:37:25.891Z,20.76
2022-08-25T02:38:26.686Z,20.72
2022-08-25T02:39:25.859Z,20.72
2022-08-25T02:40:25.947Z,20.71
2022-08-25T02:41:30.993Z,20.69
2022-08-25T02:42:26.839Z,20.66
2022-08-25T02:43:26.777Z,20.66
2022-08-25T02:44:25.824Z,20.64
2022-08-25T02:45:25.796Z,20.62
2022-08-25T02:46:25.835Z,20.59
2022-08-25T02:47:27.238Z,20.54
2022-08-25T02:48:25.758Z,20.51
2022-08-25T02:49:25.786Z,20.49
2022-08-25T02:50:25.738Z,20.42
2022-08-25T02:51:25.735Z,20.38
2022-08-25T02:52:25.729Z,20.31
2022-08-25T02:53:25.719Z,20.25
2022-08-25T02:54:25.699Z,20.23
2022-08-25T02:55:25.707Z,20.16
2022-08-25T02:56:25.680Z,20.15
2022-08-25T02:57:25.741Z,20.10
2022-08-25T02:58:25.650Z,20.05
2022-08-25T02:59:25.642Z,20.03
2022-08-25T03:00:25.642Z,20.02
2022-08-25T03:01:28.831Z,19.98
2022-08-25T03:02:25.611Z,19.97
2022-08-25T03:03:25.611Z,19.91
2022-08-25T03:04:33.391Z,19.90
2022-08-25T03:05:25.587Z,19.87
2022-08-25T03:06:25.588Z,19.86
2022-08-25T03:07:25.558Z,19.83
2022-08-25T03:08:25.537Z,19.80
2022-08-25T03:09:25.526Z,19.76
2022-08-25T03:10:25.523Z,19.76
2022-08-25T03:11:25.526Z,19.75
2022-08-25T03:12:25.506Z,19.70
2022-08-25T03:13:25.481Z,19.63
2022-08-25T03:14:25.476Z,19.58
2022-08-25T03:15:25.484Z,19.51
2022-08-25T03:16:27.712Z,19.48
2022-08-25T03:17:25.437Z,19.50
2022-08-25T03:18:25.431Z,19.48
2022-08-25T03:19:25.410Z,19.48
2022-08-25T03:20:25.402Z,19.47
2022-08-25T03:21:25.416Z,19.46
2022-08-25T03:22:25.391Z,19.43
2022-08-25T03:23:25.372Z,19.40
2022-08-25T03:24:25.359Z,19.38
2022-08-25T03:25:25.343Z,19.35
2022-08-25T03:26:25.345Z,19.31
2022-08-25T03:27:25.348Z,19.28
2022-08-25T03:28:29.926Z,19.24
2022-08-25T03:29:25.304Z,19.21
2022-08-25T03:30:25.300Z,19.17
2022-08-25T03:31:25.313Z,19.15
2022-08-25T03:32:25.304Z,19.13
2022-08-25T03:33:25.253Z,19.10
2022-08-25T03:34:25.253Z,19.11
2022-08-25T03:35:25.234Z,19.11
2022-08-25T03:36:25.232Z,19.13
2022-08-25T03:37:25.212Z,19.10
2022-08-25T03:38:25.236Z,19.10
2022-08-25T03:39:25.191Z,19.10
2022-08-25T03:40:25.299Z,19.10
2022-08-25T03:41:27.757Z,19.10
2022-08-25T03:42:25.175Z,19.08
2022-08-25T03:43:25.166Z,19.06
2022-08-25T03:44:25.133Z,19.08
2022-08-25T03:45:25.287Z,19.10
2022-08-25T03:46:25.135Z,19.06
2022-08-25T03:47:25.105Z,19.02
2022-08-25T03:48:25.145Z,18.99
2022-08-25T03:49:25.086Z,18.99
2022-08-25T03:50:25.067Z,18.97
2022-08-25T03:51:25.062Z,18.95
2022-08-25T03:52:25.058Z,18.94
2022-08-25T03:53:25.035Z,18.92
2022-08-25T03:54:25.049Z,18.91
2022-08-25T03:55:25.037Z,18.91
2022-08-25T03:56:25.006Z,18.90
2022-08-25T03:57:24.996Z,18.90
2022-08-25T03:58:24.984Z,18.90
2022-08-25T03:59:24.996Z,18.91
2022-08-25T04:00:24.985Z,18.94
2022-08-25T04:01:24.984Z,18.94
2022-08-25T04:02:24.967Z,18.97
2022-08-25T04:03:24.931Z,18.98
2022-08-25T04:04:24.918Z,18.97
2022-08-25T04:05:24.928Z,18.98
2022-08-25T04:06:24.900Z,18.98
2022-08-25T04:07:24.881Z,18.99
2022-08-25T04:08:24.869Z,18.98
2022-08-25T04:09:24.859Z,18.99
2022-08-25T04:10:24.869Z,19.01
2022-08-25T04:11:24.839Z,19.02
2022-08-25T04:12:24.838Z,19.05
2022-08-25T04:13:24.870Z,19.05
2022-08-25T04:14:24.802Z,19.06
2022-08-25T04:15:24.831Z,19.08
2022-08-25T04:16:24.810Z,19.06
2022-08-25T04:17:24.772Z,19.06
2022-08-25T04:18:24.761Z,19.08
2022-08-25T04:19:24.761Z,19.08
2022-08-25T04:20:24.733Z,19.08
2022-08-25T04:21:24.752Z,19.10
2022-08-25T04:22:24.722Z,19.08
2022-08-25T04:23:24.711Z,19.08
2022-08-25T04:24:24.696Z,19.06
2022-08-25T04:25:24.685Z,19.08
2022-08-25T04:26:24.693Z,19.08
2022-08-25T04:27:24.663Z,19.11
2022-08-25T04:28:24.644Z,19.10
2022-08-25T04:29:24.647Z,19.10
2022-08-25T04:30:24.625Z,19.11
2022-08-25T04:31:24.706Z,19.11
2022-08-25T04:32:24.616Z,19.10
2022-08-25T04:33:24.594Z,19.11
2022-08-25T04:34:30.146Z,19.13
2022-08-25T04:35:25.566Z,19.14
2022-08-25T04:36:24.577Z,19.14
2022-08-25T04:37:24.553Z,19.14
2022-08-25T04:38:24.535Z,19.13
2022-08-25T04:39:24.525Z,19.13
2022-08-25T04:40:28.920Z,19.14
2022-08-25T04:41:24.534Z,19.14
2022-08-25T04:42:24.523Z,19.13
2022-08-25T04:43:24.488Z,19.14
2022-08-25T04:44:24.466Z,19.14
2022-08-25T04:45:24.492Z,19.15
2022-08-25T04:46:24.494Z,19.18
2022-08-25T04:47:24.457Z,19.17
2022-08-25T04:48:24.427Z,19.23
2022-08-25T04:49:24.419Z,19.24
2022-08-25T04:50:24.399Z,19.28
2022-08-25T04:51:24.400Z,19.29
2022-08-25T04:52:24.390Z,19.32
2022-08-25T04:53:24.390Z,19.35
2022-08-25T04:54:24.360Z,19.36
2022-08-25T04:55:24.350Z,19.36
2022-08-25T04:56:24.339Z,19.38
2022-08-25T04:57:24.331Z,19.40
2022-08-25T04:58:24.332Z,19.42
2022-08-25T04:59:24.308Z,19.43
2022-08-25T05:00:25.294Z,19.46
2022-08-25T05:01:24.396Z,19.47
2022-08-25T05:02:24.272Z,19.47
2022-08-25T05:03:24.288Z,19.47
2022-08-25T05:04:28.336Z,19.47
2022-08-25T05:05:24.241Z,19.48
2022-08-25T05:06:24.223Z,19.50
2022-08-25T05:07:24.220Z,19.50
2022-08-25T05:08:24.203Z,19.51
2022-08-25T05:09:25.083Z,19.53
2022-08-25T05:10:24.195Z,19.53
2022-08-25T05:11:24.174Z,19.53
2022-08-25T05:12:24.163Z,19.54
2022-08-25T05:13:24.180Z,19.54
2022-08-25T05:14:26.264Z,19.55
2022-08-25T05:15:24.128Z,19.58
2022-08-25T05:16:24.183Z,19.60
2022-08-25T05:17:24.106Z,19.63
2022-08-25T05:18:24.095Z,19.65
2022-08-25T05:19:24.244Z,19.68
2022-08-25T05:20:24.064Z,19.68
2022-08-25T05:21:24.055Z,19.69
2022-08-25T05:22:24.066Z,19.70
2022-08-25T05:23:24.035Z,19.73
2022-08-25T05:24:24.027Z,19.73
2022-08-25T05:25:24.035Z,19.75
2022-08-25T05:26:23.997Z,19.75
2022-08-25T05:27:24.001Z,19.75
2022-08-25T05:28:23.978Z,19.75
2022-08-25T05:29:23.968Z,19.76
2022-08-25T05:30:23.976Z,19.76
2022-08-25T05:31:24.013Z,19.80
2022-08-25T05:32:23.947Z,19.83
2022-08-25T05:33:23.928Z,19.84
2022-08-25T05:34:23.908Z,19.84
2022-08-25T05:35:23.927Z,19.88
2022-08-25T05:36:23.887Z,19.91
2022-08-25T05:37:23.887Z,19.95
2022-08-25T05:38:23.923Z,20.00
2022-08-25T05:39:23.928Z,20.05
2022-08-25T05:40:23.923Z,20.10
2022-08-25T05:41:23.838Z,20.16
2022-08-25T05:42:23.850Z,20.20
2022-08-25T05:43:23.869Z,20.24
2022-08-25T05:44:23.802Z,20.24
2022-08-25T05:45:23.858Z,20.30
2022-08-25T05:46:23.780Z,20.38
2022-08-25T05:47:23.790Z,20.42
2022-08-25T05:48:23.761Z,20.50
2022-08-25T05:49:23.751Z,20.54
2022-08-25T05:50:23.742Z,20.59
2022-08-25T05:51:23.723Z,20.61
2022-08-25T05:52:23.750Z,20.62
2022-08-25T05:53:23.703Z,20.66
2022-08-25T05:54:23.703Z,20.68
2022-08-25T05:55:23.684Z,20.74
2022-08-25T05:56:23.696Z,20.76
2022-08-25T05:57:23.661Z,20.79
2022-08-25T05:58:23.672Z,20.83
2022-08-25T05:59:23.641Z,20.89
2022-08-25T06:00:23.624Z,20.91
2022-08-25T06:01:23.716Z,20.91
2022-08-25T06:02:23.657Z,20.95
2022-08-25T06:03:23.648Z,20.98
2022-08-25T06:04:23.575Z,21.01
2022-08-25T06:05:23.565Z,21.02
2022-08-25T06:06:23.554Z,21.06
2022-08-25T06:07:23.546Z,21.09
2022-08-25T06:08:23.555Z,21.13
2022-08-25T06:09:23.525Z,21.19
2022-08-25T06:10:23.516Z,21.24
2022-08-25T06:11:23.506Z,21.29
2022-08-25T06:12:23.497Z,21.30
2022-08-25T06:13:28.763Z,21.34
2022-08-25T06:14:24.468Z,21.35
2022-08-25T06:15:23.490Z,21.41
2022-08-25T06:16:23.524Z,21.42
2022-08-25T06:17:23.436Z,21.44
2022-08-25T06:18:23.429Z,21.46
2022-08-25T06:19:23.730Z,21.50
2022-08-25T06:20:25.824Z,21.53
2022-08-25T06:21:23.409Z,21.53
2022-08-25T06:22:23.426Z,21.56
2022-08-25T06:23:23.368Z,21.57
2022-08-25T06:24:23.369Z,21.61
2022-08-25T06:25:23.369Z,21.64
2022-08-25T06:26:23.331Z,21.69
2022-08-25T06:27:23.328Z,21.72
2022-08-25T06:28:23.310Z,21.79
2022-08-25T06:29:23.302Z,21.91
2022-08-25T06:30:24.588Z,21.98
2022-08-25T06:31:24.335Z,22.04
2022-08-25T06:32:23.271Z,22.09
2022-08-25T06:33:23.261Z,22.13
2022-08-25T06:34:23.813Z,22.16
2022-08-25T06:35:23.248Z,22.19
2022-08-25T06:36:23.243Z,22.23
2022-08-25T06:37:25.156Z,22.29
2022-08-25T06:38:23.203Z,22.35
2022-08-25T06:39:23.204Z,22.41
2022-08-25T06:40:23.215Z,22.46
2022-08-25T06:41:23.190Z,22.46
2022-08-25T06:42:23.185Z,22.49
2022-08-25T06:43:23.144Z,22.50
2022-08-25T06:44:23.134Z,22.56
2022-08-25T06:45:23.126Z,22.60
2022-08-25T06:46:23.153Z,22.67
2022-08-25T06:47:24.223Z,22.71
2022-08-25T06:48:23.086Z,22.78
2022-08-25T06:49:23.092Z,22.83
2022-08-25T06:50:23.066Z,22.89
2022-08-25T06:51:23.065Z,22.97
2022-08-25T06:52:23.075Z,23.07
2022-08-25T06:53:24.035Z,23.15
2022-08-25T06:54:23.028Z,23.20
2022-08-25T06:55:23.018Z,23.24
2022-08-25T06:56:23.001Z,23.31
2022-08-25T06:57:23.008Z,23.35
2022-08-25T06:58:23.007Z,23.39
2022-08-25T06:59:22.968Z,23.46
2022-08-25T07:00:22.958Z,23.52
2022-08-25T07:01:25.921Z,23.58
2022-08-25T07:02:23.007Z,23.62
2022-08-25T07:04:22.939Z,23.68
2022-08-25T07:05:33.654Z,23.72
2022-08-25T07:06:23.889Z,23.77
2022-08-25T07:07:22.888Z,23.82
2022-08-25T07:08:22.881Z,23.83
2022-08-25T07:09:22.888Z,23.86
2022-08-25T07:10:22.848Z,23.90
2022-08-25T07:11:22.850Z,23.92
2022-08-25T07:12:22.832Z,23.95
2022-08-25T07:13:22.822Z,24.02
2022-08-25T07:14:22.829Z,24.05
2022-08-25T07:15:22.793Z,24.10
2022-08-25T07:16:22.820Z,24.14
2022-08-25T07:17:22.775Z,24.16
2022-08-25T07:18:22.764Z,24.20
2022-08-25T07:19:22.774Z,24.22
2022-08-25T07:21:25.013Z,24.32
2022-08-25T07:22:23.723Z,24.39
2022-08-25T07:23:22.711Z,24.44
2022-08-25T07:24:22.713Z,24.47
2022-08-25T07:25:22.707Z,24.47
2022-08-25T07:26:38.995Z,24.52
2022-08-25T07:27:23.664Z,24.56
2022-08-25T07:28:22.656Z,24.59
2022-08-25T07:29:31.827Z,24.64
2022-08-25T07:30:23.727Z,24.68
2022-08-25T07:31:22.675Z,24.75
2022-08-25T07:32:23.618Z,24.79
2022-08-25T07:33:22.596Z,24.82
2022-08-25T07:34:22.617Z,24.87
2022-08-25T07:35:23.984Z,24.92
2022-08-25T07:36:22.566Z,24.98
2022-08-25T07:38:23.548Z,25.07
2022-08-25T07:39:22.541Z,25.12
2022-08-25T07:40:22.747Z,25.13
2022-08-25T07:41:22.506Z,25.17
2022-08-25T07:42:22.508Z,25.19
2022-08-25T07:43:22.480Z,25.22
2022-08-25T07:44:22.471Z,25.27
2022-08-25T07:45:22.490Z,25.28
2022-08-25T07:46:22.482Z,25.32
2022-08-25T07:47:23.095Z,25.37
2022-08-25T07:48:22.440Z,25.39
2022-08-25T07:49:23.127Z,25.43
2022-08-25T07:50:22.523Z,25.50
2022-08-25T07:51:22.460Z,25.53
2022-08-25T07:52:22.394Z,25.57
2022-08-25T07:53:22.687Z,25.62
2022-08-25T07:54:22.369Z,25.68
2022-08-25T07:55:23.357Z,25.71
2022-08-25T07:56:22.341Z,25.74
2022-08-25T07:57:22.355Z,25.77
2022-08-25T07:58:22.329Z,25.80
2022-08-25T07:59:22.310Z,25.84
2022-08-25T08:00:22.303Z,25.89
2022-08-25T08:01:22.348Z,25.93
2022-08-25T08:02:22.330Z,25.97
2022-08-25T08:03:42.262Z,26.01
2022-08-25T08:04:23.255Z,26.04
2022-08-25T08:05:24.041Z,26.09
2022-08-25T08:06:22.232Z,26.12
2022-08-25T08:07:22.955Z,26.17
2022-08-25T08:08:22.215Z,26.22
2022-08-25T08:09:22.198Z,26.27
2022-08-25T08:11:23.174Z,26.32
2022-08-25T08:12:22.206Z,26.36
2022-08-25T08:13:22.149Z,26.40
2022-08-25T08:14:22.139Z,26.46
2022-08-25T08:15:22.160Z,26.49
2022-08-25T08:16:22.168Z,26.52
2022-08-25T08:17:22.127Z,26.54
2022-08-25T08:18:22.129Z,26.58
2022-08-25T08:19:23.134Z,26.61
2022-08-25T08:20:23.547Z,26.64
2022-08-25T08:21:22.067Z,26.67
2022-08-25T08:22:22.159Z,26.72
2022-08-25T08:23:22.041Z,26.76
2022-08-25T08:24:40.886Z,26.77
2022-08-25T08:25:26.436Z,26.80
2022-08-25T08:26:22.469Z,26.83
2022-08-25T08:27:22.999Z,26.84
2022-08-25T08:28:22.043Z,26.84
2022-08-25T08:29:21.978Z,26.89
2022-08-25T08:30:21.963Z,26.92
2022-08-25T08:31:21.983Z,26.96
2022-08-25T08:32:22.281Z,26.98
2022-08-25T08:33:21.932Z,27.04
2022-08-25T08:34:24.964Z,27.06
2022-08-25T08:35:21.902Z,27.13
2022-08-25T08:36:21.938Z,27.16
2022-08-25T08:37:22.970Z,27.16
2022-08-25T08:38:22.242Z,27.16
2022-08-25T08:39:22.884Z,27.20
2022-08-25T08:40:21.979Z,27.24
2022-08-25T08:41:23.182Z,27.31
2022-08-25T08:42:21.833Z,27.35
2022-08-25T08:43:21.824Z,27.38
2022-08-25T08:44:21.835Z,27.43
2022-08-25T08:45:21.829Z,27.47
2022-08-25T08:46:21.831Z,27.50
2022-08-25T08:47:22.473Z,27.54
2022-08-25T08:48:21.767Z,27.57
2022-08-25T08:49:21.776Z,27.62
2022-08-25T08:50:24.962Z,27.64
2022-08-25T08:51:22.968Z,27.64
2022-08-25T08:52:21.726Z,27.62
2022-08-25T08:53:21.718Z,27.64
2022-08-25T08:54:23.161Z,27.70
2022-08-25T08:55:21.708Z,27.67
2022-08-25T08:56:21.678Z,27.67
2022-08-25T08:57:21.660Z,27.70
2022-08-25T08:58:26.538Z,27.71
2022-08-25T08:59:29.944Z,27.76
2022-08-25T09:00:22.659Z,27.79
2022-08-25T09:01:21.670Z,27.79
2022-08-25T09:02:30.719Z,27.82
2022-08-25T09:03:22.667Z,27.86
2022-08-25T09:04:29.368Z,27.86
2022-08-25T09:05:21.599Z,27.92
2022-08-25T09:06:21.575Z,27.91
2022-08-25T09:07:21.557Z,27.91
2022-08-25T09:08:21.576Z,27.92
2022-08-25T09:09:21.547Z,27.94
2022-08-25T09:10:21.520Z,27.96
2022-08-25T09:11:21.540Z,27.98
2022-08-25T09:12:21.508Z,27.99
2022-08-25T09:13:21.496Z,28.01
2022-08-25T09:14:21.483Z,28.01
2022-08-25T09:15:21.492Z,27.99
2022-08-25T09:16:31.951Z,28.01
2022-08-25T09:17:22.483Z,28.09
2022-08-25T09:18:21.440Z,28.14
2022-08-25T09:19:23.541Z,28.19
2022-08-25T09:20:21.450Z,28.25
2022-08-25T09:21:21.407Z,28.29
2022-08-25T09:22:35.117Z,28.29
2022-08-25T09:23:22.405Z,28.31
2022-08-25T09:24:21.374Z,28.29
2022-08-25T09:25:39.627Z,28.26
2022-08-25T09:26:22.355Z,28.29
2022-08-25T09:27:21.337Z,28.35
2022-08-25T09:28:21.376Z,28.48
2022-08-25T09:29:21.315Z,28.62
2022-08-25T09:30:21.307Z,28.77
2022-08-25T09:31:21.346Z,28.88
2022-08-25T09:32:24.000Z,28.95
2022-08-25T09:33:21.478Z,29.04
2022-08-25T09:34:21.287Z,29.13
2022-08-25T09:35:21.259Z,29.20
2022-08-25T09:36:21.245Z,29.29
2022-08-25T09:37:21.227Z,29.33
2022-08-25T09:38:21.249Z,29.40
2022-08-25T09:39:21.229Z,29.49
2022-08-25T09:40:21.245Z,29.56
2022-08-25T09:41:21.191Z,29.63
2022-08-25T09:42:23.821Z,29.65
2022-08-25T09:43:21.189Z,29.72
2022-08-25T09:44:21.161Z,29.81
2022-08-25T09:45:21.154Z,29.89
2022-08-25T09:46:21.213Z,30.00
2022-08-25T09:47:21.121Z,30.14
2022-08-25T09:48:21.117Z,30.26
2022-08-25T09:49:21.134Z,30.43
2022-08-25T09:50:21.092Z,30.62
2022-08-25T09:51:21.084Z,30.68
2022-08-25T09:52:21.080Z,30.75
2022-08-25T09:53:21.705Z,30.83
2022-08-25T09:54:21.074Z,30.99
2022-08-25T09:55:21.042Z,31.18
2022-08-25T09:56:21.036Z,31.30
2022-08-25T09:57:21.026Z,31.43
2022-08-25T09:58:22.130Z,31.55
2022-08-25T09:59:21.017Z,31.75
2022-08-25T10:00:22.009Z,32.03
2022-08-25T10:01:22.436Z,32.33
2022-08-25T10:02:20.966Z,32.51
2022-08-25T10:03:22.828Z,32.58
2022-08-25T10:04:20.982Z,32.44
2022-08-25T10:05:20.973Z,32.49
2022-08-25T10:06:20.924Z,32.62
2022-08-25T10:07:20.907Z,32.89
2022-08-25T10:08:21.312Z,32.96
2022-08-25T10:09:20.888Z,33.07
2022-08-25T10:10:20.906Z,33.26
2022-08-25T10:11:20.869Z,33.57
2022-08-25T10:12:21.117Z,33.80
2022-08-25T10:13:22.671Z,34.11
2022-08-25T10:14:20.831Z,34.45
2022-08-25T10:15:30.414Z,34.70
2022-08-25T10:16:24.546Z,34.98
2022-08-25T10:17:20.812Z,35.15
2022-08-25T10:18:20.790Z,35.39
2022-08-25T10:19:20.772Z,35.29
2022-08-25T10:20:20.770Z,35.57
2022-08-25T10:21:20.753Z,35.48
2022-08-25T10:22:20.768Z,35.66
2022-08-25T10:23:20.733Z,35.91
2022-08-25T10:24:20.724Z,36.00
2022-08-25T10:25:20.714Z,36.21
2022-08-25T10:26:20.716Z,36.46
2022-08-25T10:27:20.713Z,36.77
2022-08-25T10:28:20.681Z,37.09
2022-08-25T10:29:20.684Z,37.32
2022-08-25T10:30:20.663Z,37.26
2022-08-25T10:31:20.680Z,37.50
2022-08-25T10:32:20.666Z,37.77
2022-08-25T10:33:20.629Z,38.11
2022-08-25T10:34:20.619Z,38.24
2022-08-25T10:35:20.608Z,38.51
2022-08-25T10:36:21.374Z,38.60
2022-08-25T10:37:20.608Z,38.87
2022-08-25T10:38:21.643Z,38.86
2022-08-25T10:39:34.101Z,38.90
2022-08-25T10:40:21.615Z,39.13
2022-08-25T10:41:20.541Z,39.10
2022-08-25T10:42:20.538Z,39.09
2022-08-25T10:43:23.720Z,39.03
2022-08-25T10:44:20.519Z,38.60
2022-08-25T10:45:21.831Z,38.52
2022-08-25T10:46:20.568Z,38.75
2022-08-25T10:47:20.482Z,38.30
2022-08-25T10:48:20.476Z,38.27
2022-08-25T10:49:20.483Z,38.63
2022-08-25T10:50:20.455Z,38.90
2022-08-25T10:51:25.296Z,39.28
2022-08-25T10:52:21.432Z,39.30
2022-08-25T10:53:20.415Z,39.40
2022-08-25T10:54:20.445Z,39.62
2022-08-25T10:55:20.416Z,39.59
2022-08-25T10:56:20.400Z,39.47
2022-08-25T10:57:20.468Z,39.22
2022-08-25T10:58:20.367Z,39.32
2022-08-25T10:59:20.356Z,39.25
2022-08-25T11:00:20.376Z,39.24
2022-08-25T11:01:20.384Z,38.95
2022-08-25T11:02:21.328Z,38.92
2022-08-25T11:03:20.319Z,39.24
2022-08-25T11:04:20.310Z,39.56
2022-08-25T11:05:24.520Z,39.81
2022-08-25T11:06:20.291Z,40.00
2022-08-25T11:07:20.281Z,40.18
2022-08-25T11:08:20.286Z,40.15
2022-08-25T11:09:20.265Z,40.29
2022-08-25T11:10:20.251Z,40.30
2022-08-25T11:11:20.271Z,40.36
2022-08-25T11:12:20.234Z,40.24
2022-08-25T11:13:20.215Z,40.21
2022-08-25T11:14:20.212Z,39.96
2022-08-25T11:15:20.263Z,40.04
2022-08-25T11:16:20.200Z,40.32
2022-08-25T11:17:20.242Z,40.38
2022-08-25T11:18:20.173Z,40.50
2022-08-25T11:19:20.159Z,40.40
2022-08-25T11:20:26.743Z,40.50
2022-08-25T11:21:22.181Z,40.79
2022-08-25T11:22:20.147Z,40.87
2022-08-25T11:23:20.136Z,41.03
2022-08-25T11:24:20.117Z,41.21
2022-08-25T11:25:20.155Z,41.24
2022-08-25T11:26:20.159Z,41.09
2022-08-25T11:27:21.662Z,40.65
2022-08-25T11:28:20.085Z,40.32
2022-08-25T11:29:20.092Z,40.15
2022-08-25T11:30:20.067Z,40.04
2022-08-25T11:31:20.090Z,39.83
2022-08-25T11:32:20.071Z,39.99
2022-08-25T11:33:20.056Z,40.00
2022-08-25T11:34:20.018Z,40.34
2022-08-25T11:35:20.010Z,40.47
2022-08-25T11:36:19.999Z,40.54
2022-08-25T11:37:20.012Z,40.84
2022-08-25T11:38:20.001Z,40.84
2022-08-25T11:39:19.974Z,41.10
2022-08-25T11:40:20.019Z,40.96
2022-08-25T11:41:19.961Z,41.13
2022-08-25T11:42:19.942Z,41.21
2022-08-25T11:43:19.955Z,41.58
2022-08-25T11:44:19.919Z,41.83
2022-08-25T11:45:19.913Z,41.68
2022-08-25T11:46:19.975Z,41.90
2022-08-25T11:47:21.411Z,42.13
2022-08-25T11:48:19.908Z,42.35
2022-08-25T11:49:19.876Z,42.49
2022-08-25T11:50:19.887Z,42.62
2022-08-25T11:51:19.882Z,42.62
2022-08-25T11:52:19.865Z,42.41
2022-08-25T11:53:25.132Z,42.23
2022-08-25T11:54:20.932Z,42.28
2022-08-25T11:55:22.784Z,42.37
2022-08-25T11:56:19.806Z,41.94
2022-08-25T11:57:19.936Z,41.82
2022-08-25T11:58:19.946Z,41.73
2022-08-25T11:59:19.784Z,41.41
2022-08-25T12:00:19.766Z,40.88
2022-08-25T12:01:19.768Z,40.96
2022-08-25T12:02:19.749Z,40.84
2022-08-25T12:03:19.768Z,40.94
2022-08-25T12:04:19.796Z,41.09
2022-08-25T12:05:19.978Z,41.46
2022-08-25T12:06:19.711Z,41.73
2022-08-25T12:07:19.711Z,42.05
2022-08-25T12:08:19.719Z,42.10
2022-08-25T12:09:19.693Z,42.12
2022-08-25T12:10:19.705Z,42.03
2022-08-25T12:11:19.671Z,41.91
2022-08-25T12:12:19.671Z,41.96
2022-08-25T12:13:19.680Z,42.15
2022-08-25T12:14:19.641Z,42.13
2022-08-25T12:15:19.642Z,42.29
2022-08-25T12:16:19.670Z,42.31
2022-08-25T12:17:19.665Z,41.93
2022-08-25T12:18:19.635Z,41.40
2022-08-25T12:19:19.603Z,41.29
2022-08-25T12:20:19.593Z,41.55
2022-08-25T12:21:19.593Z,41.61
2022-08-25T12:22:19.577Z,41.55
2022-08-25T12:23:19.570Z,41.31
2022-08-25T12:24:19.578Z,41.55
2022-08-25T12:25:19.576Z,41.34
2022-08-25T12:26:19.538Z,41.21
2022-08-25T12:27:19.526Z,41.25
2022-08-25T12:28:19.565Z,41.40
2022-08-25T12:29:19.546Z,41.74
2022-08-25T12:30:21.028Z,41.81
2022-08-25T12:31:19.638Z,41.61
2022-08-25T12:32:19.507Z,41.55
2022-08-25T12:33:19.479Z,41.49
2022-08-25T12:34:19.588Z,41.66
2022-08-25T12:35:20.517Z,42.00
2022-08-25T12:36:19.472Z,42.38
2022-08-25T12:37:19.442Z,42.56
2022-08-25T12:38:19.428Z,42.83
2022-08-25T12:39:19.491Z,43.18
2022-08-25T12:40:20.488Z,43.51
2022-08-25T12:41:19.401Z,43.86
2022-08-25T12:42:21.985Z,44.17
2022-08-25T12:43:20.413Z,44.10
2022-08-25T12:44:19.404Z,44.04
2022-08-25T12:45:19.444Z,44.14
2022-08-25T12:46:19.479Z,44.04
2022-08-25T12:47:19.434Z,43.75
2022-08-25T12:48:19.592Z,43.60
2022-08-25T12:49:19.429Z,43.32
2022-08-25T12:50:20.164Z,43.23
2022-08-25T12:51:19.377Z,43.25
2022-08-25T12:52:19.455Z,43.16
2022-08-25T12:53:19.324Z,43.41
2022-08-25T12:54:22.521Z,43.75
2022-08-25T12:55:19.280Z,43.99
2022-08-25T12:56:20.055Z,44.05